createdAt,value
2024-04-08T00:00:40.567Z,81.2
2024-04-08T00:03:52.713Z,81.6
2024-04-08T00:07:04.872Z,81.4
2024-04-08T00:10:17.018Z,81.7
2024-04-08T00:13:29.171Z,81.9
2024-04-08T00:16:41.311Z,81.7
2024-04-08T00:19:53.461Z,81.7
2024-04-08T00:23:05.642Z,82
2024-04-08T00:26:17.790Z,82.3
2024-04-08T00:29:29.947Z,82.8
2024-04-08T00:32:42.104Z,82.6
2024-04-08T00:35:53.267Z,81.9
2024-04-08T00:39:05.408Z,81.8
2024-04-08T00:42:17.562Z,82.2
2024-04-08T00:45:29.721Z,82.6
2024-04-08T00:48:41.852Z,82.3
2024-04-08T00:51:54.014Z,82.1
2024-04-08T00:55:06.161Z,82.3
2024-04-08T00:58:18.313Z,83.1
2024-04-08T01:01:30.000Z,83.3
2024-04-08T01:04:42.611Z,82.9
2024-04-08T01:07:54.753Z,82.4
2024-04-08T01:11:06.917Z,81.8
2024-04-08T01:14:19.062Z,81
2024-04-08T01:17:30.222Z,79.6
2024-04-08T01:20:42.379Z,79
2024-04-08T01:23:54.538Z,79
2024-04-08T01:27:06.687Z,77.4
2024-04-08T01:30:18.828Z,77
2024-04-08T01:33:30.979Z,76.3
2024-04-08T01:36:43.131Z,76.8
2024-04-08T01:39:55.275Z,76.8
2024-04-08T01:43:07.428Z,77.2
2024-04-08T01:46:19.576Z,78.2
2024-04-08T01:49:31.723Z,78.7
2024-04-08T01:52:43.884Z,78.7
2024-04-08T01:59:08.190Z,78.9
2024-04-08T02:02:19.354Z,79.6
2024-04-08T02:05:31.503Z,80.3
2024-04-08T02:08:43.657Z,80.4
2024-04-08T02:11:55.789Z,80.3
2024-04-08T02:15:07.945Z,80.6
2024-04-08T02:18:22.613Z,80.7
2024-04-08T02:21:32.245Z,80.3
2024-04-08T02:24:44.405Z,80.9
2024-04-08T02:27:56.547Z,81.2
2024-04-08T02:31:08.713Z,80.3
2024-04-08T02:34:20.863Z,80.3
2024-04-08T02:37:33.005Z,81
2024-04-08T02:40:45.158Z,81.1
2024-04-08T02:43:56.318Z,81.6
2024-04-08T02:47:08.479Z,81.8
2024-04-08T02:50:20.621Z,81.8
2024-04-08T02:53:32.777Z,82
2024-04-08T02:56:44.918Z,81.8
2024-04-08T02:59:57.065Z,81.8
2024-04-08T03:03:09.213Z,81.6
2024-04-08T03:06:21.366Z,81.5
2024-04-08T03:09:33.515Z,82
2024-04-08T03:12:45.670Z,82
2024-04-08T03:15:57.815Z,82.1
2024-04-08T03:19:09.971Z,82.4
2024-04-08T03:22:22.116Z,82.5
2024-04-08T03:25:33.297Z,82.4
2024-04-08T03:28:45.448Z,82.2
2024-04-08T03:31:57.593Z,83.1
2024-04-08T03:35:09.740Z,82.6
2024-04-08T03:38:21.887Z,82
2024-04-08T03:41:34.043Z,82.6
2024-04-08T03:44:46.196Z,82.5
2024-04-08T03:47:58.348Z,82.4
2024-04-08T03:51:10.484Z,82.5
2024-04-08T03:54:22.647Z,82.9
2024-04-08T03:57:34.792Z,83.3
2024-04-08T04:00:46.935Z,83.6
2024-04-08T04:03:59.087Z,83.1
2024-04-08T04:07:10.269Z,83.1
2024-04-08T04:10:22.406Z,83.3
2024-04-08T04:13:34.553Z,83.8
2024-04-08T04:16:46.710Z,83.7
2024-04-08T04:19:58.850Z,83.8
2024-04-08T04:23:10.029Z,83.9
2024-04-08T04:26:22.177Z,84.2
2024-04-08T04:29:34.322Z,84.1
2024-04-08T04:32:46.491Z,84.1
2024-04-08T04:35:58.637Z,83.3
2024-04-08T04:39:10.782Z,83
2024-04-08T04:42:22.933Z,83.1
2024-04-08T04:45:35.078Z,83.4
2024-04-08T04:48:47.239Z,84.1
2024-04-08T04:51:59.390Z,84.5
2024-04-08T04:55:11.522Z,84.1
2024-04-08T04:58:23.675Z,83.8
2024-04-08T05:01:35.839Z,84.2
2024-04-08T05:04:47.001Z,84.3
2024-04-08T05:07:59.151Z,83.9
2024-04-08T05:11:11.299Z,83.9
2024-04-08T05:14:23.456Z,83.9
2024-04-08T05:17:35.590Z,84.2
2024-04-08T05:20:47.749Z,84.7
2024-04-08T05:23:59.893Z,84.6
2024-04-08T05:27:12.061Z,84.4
2024-04-08T05:30:24.200Z,85.1
2024-04-08T05:33:36.353Z,84.8
2024-04-08T05:36:48.497Z,84.3
2024-04-08T05:40:00.645Z,84.8
2024-04-08T05:43:12.809Z,84.2
2024-04-08T05:46:23.978Z,84
2024-04-08T05:49:36.122Z,84.1
2024-04-08T05:52:48.281Z,84.2
2024-04-08T05:56:00.426Z,85
2024-04-08T05:59:12.581Z,85.5
2024-04-08T06:02:24.715Z,84.6
2024-04-08T06:05:36.883Z,84.8
2024-04-08T06:08:49.026Z,84.7
2024-04-08T06:12:01.177Z,84.5
2024-04-08T06:15:13.318Z,84.1
2024-04-08T06:18:25.490Z,84.8
2024-04-08T06:21:37.628Z,84.5
2024-04-08T06:24:49.791Z,82.9
2024-04-08T06:28:00.958Z,82.3
2024-04-08T06:31:13.110Z,82.9
2024-04-08T06:34:25.257Z,82.1
2024-04-08T06:37:37.394Z,81.9
2024-04-08T06:40:49.550Z,81.6
2024-04-08T06:44:01.708Z,81.5
2024-04-08T06:47:13.853Z,81.3
2024-04-08T06:50:26.011Z,81.3
2024-04-08T06:53:38.164Z,81.5
2024-04-08T06:56:50.307Z,81.3
2024-04-08T07:00:02.470Z,80.9
2024-04-08T07:03:14.624Z,81.9
2024-04-08T07:06:26.766Z,82.2
2024-04-08T07:09:37.939Z,82.1
2024-04-08T07:12:50.080Z,81.8
2024-04-08T07:16:02.238Z,81.6
2024-04-08T07:19:14.397Z,81.4
2024-04-08T07:22:26.549Z,82.1
2024-04-08T07:25:38.683Z,81.6
2024-04-08T07:28:50.842Z,81.9
2024-04-08T07:32:02.980Z,81.6
2024-04-08T07:35:15.143Z,81.6
2024-04-08T07:38:27.296Z,81
2024-04-08T07:41:39.452Z,81
2024-04-08T07:44:51.595Z,81
2024-04-08T07:48:03.758Z,81.4
2024-04-08T07:51:14.920Z,81.8
2024-04-08T07:54:27.071Z,81.4
2024-04-08T07:57:39.222Z,79.8
2024-04-08T08:00:51.367Z,80.1
2024-04-08T08:04:03.512Z,79.9
2024-04-08T08:07:15.682Z,79.9
2024-04-08T08:10:27.826Z,80.4
2024-04-08T08:13:39.966Z,80.5
2024-04-08T08:16:52.132Z,79.9
2024-04-08T08:20:04.289Z,79.9
2024-04-08T08:23:16.424Z,80.2
2024-04-08T08:26:28.580Z,80.8
2024-04-08T08:29:40.733Z,80.2
2024-04-08T08:32:51.904Z,80.5
2024-04-08T08:36:04.056Z,80.7
2024-04-08T08:39:16.210Z,79.2
2024-04-08T08:42:28.362Z,78.7
2024-04-08T08:45:40.508Z,78.1
2024-04-08T08:48:52.659Z,78.2
2024-04-08T08:52:04.817Z,79.2
2024-04-08T08:55:16.958Z,79.3
2024-04-08T08:58:29.127Z,79.2
2024-04-08T09:01:41.274Z,79.5
2024-04-08T09:04:53.415Z,80
2024-04-08T09:08:05.572Z,79.6
2024-04-08T09:11:17.723Z,79.6
2024-04-08T09:14:28.895Z,79.1
2024-04-08T09:17:41.040Z,78.9
2024-04-08T09:20:53.194Z,79
2024-04-08T09:24:05.338Z,79.1
2024-04-08T09:27:17.506Z,79
2024-04-08T09:30:29.654Z,78.3
2024-04-08T09:33:41.810Z,80.1
2024-04-08T09:36:53.957Z,79.8
2024-04-08T09:40:06.098Z,79.7
2024-04-08T09:43:18.259Z,79.1
2024-04-08T09:46:30.409Z,78.9
2024-04-08T09:49:42.551Z,79
2024-04-08T09:52:54.710Z,79
2024-04-08T09:56:05.880Z,79.1
2024-04-08T09:59:18.027Z,79.1
2024-04-08T10:02:30.174Z,79.6
2024-04-08T10:05:42.342Z,79.6
2024-04-08T10:08:54.495Z,79.1
2024-04-08T10:12:06.633Z,78.2
2024-04-08T10:15:18.796Z,77.7
2024-04-08T10:18:30.949Z,76.4
2024-04-08T10:21:43.101Z,77.2
2024-04-08T10:24:55.254Z,76.2
2024-04-08T10:28:07.405Z,77.7
2024-04-08T10:31:19.550Z,77.4
2024-04-08T10:34:31.695Z,76.5
2024-04-08T10:37:42.872Z,76.4
2024-04-08T10:40:55.012Z,76.4
2024-04-08T10:44:07.179Z,75.1
2024-04-08T10:47:19.324Z,73.5
2024-04-08T10:50:31.482Z,74.3
2024-04-08T10:53:43.623Z,73.3
2024-04-08T10:56:55.784Z,72.2
2024-04-08T11:00:07.926Z,73
2024-04-08T11:03:20.081Z,72.8
2024-04-08T11:06:32.226Z,73
2024-04-08T11:09:44.385Z,72.1
2024-04-08T11:12:56.535Z,71.6
2024-04-08T11:16:08.680Z,69.5
2024-04-08T11:19:19.855Z,67.8
2024-04-08T11:22:32.007Z,67.5
2024-04-08T11:25:44.152Z,67.1
2024-04-08T11:28:56.309Z,66.7
2024-04-08T11:32:08.455Z,67.3
2024-04-08T11:35:20.620Z,67.6
2024-04-08T11:38:32.759Z,67.6
2024-04-08T11:41:44.917Z,68.1
2024-04-08T11:44:57.067Z,67.4
2024-04-08T11:48:09.207Z,65.3
2024-04-08T11:51:21.359Z,65
2024-04-08T11:54:33.521Z,64.7
2024-04-08T11:57:45.666Z,64.6
2024-04-08T12:00:56.832Z,63.6
2024-04-08T12:04:08.993Z,63.4
2024-04-08T12:07:21.135Z,63.4
2024-04-08T12:10:33.288Z,63.4
2024-04-08T12:13:45.436Z,63.4
2024-04-08T12:16:57.590Z,64
2024-04-08T12:20:09.757Z,63.6
2024-04-08T12:23:21.908Z,61.5
2024-04-08T12:26:34.043Z,59.7
2024-04-08T12:29:46.199Z,60.7
2024-04-08T12:32:58.357Z,58.9
2024-04-08T12:36:10.510Z,58
2024-04-08T12:39:22.655Z,59.1
2024-04-08T12:42:33.826Z,57.9
2024-04-08T12:45:45.973Z,56.8
2024-04-08T12:48:58.140Z,54.7
2024-04-08T12:52:10.272Z,54.9
2024-04-08T12:55:22.431Z,53.8
2024-04-08T12:58:34.585Z,54.7
2024-04-08T13:01:46.733Z,53.5
2024-04-08T13:04:58.890Z,53
2024-04-08T13:08:11.040Z,54.9
2024-04-08T13:11:23.198Z,55.3
2024-04-08T13:14:35.335Z,54
2024-04-08T13:17:47.497Z,54.8
2024-04-08T13:20:59.652Z,55.2
2024-04-08T13:24:10.825Z,54.8
2024-04-08T13:27:22.974Z,55.5
2024-04-08T13:30:35.116Z,54.7
2024-04-08T13:33:47.274Z,53.1
2024-04-08T13:36:59.424Z,52.5
2024-04-08T13:40:11.567Z,53.3
2024-04-08T13:43:23.722Z,53
2024-04-08T13:46:35.880Z,48.9
2024-04-08T13:49:48.022Z,47.3
2024-04-08T13:53:00.179Z,47.1
2024-04-08T13:56:12.343Z,47.5
2024-04-08T13:59:24.489Z,47.7
2024-04-08T14:02:36.642Z,47.9
2024-04-08T14:05:47.812Z,48.5
2024-04-08T14:08:59.954Z,47.7
2024-04-08T14:12:12.111Z,48.3
2024-04-08T14:15:24.251Z,48.6
2024-04-08T14:18:36.416Z,47.9
2024-04-08T14:21:48.554Z,48.5
2024-04-08T14:25:00.713Z,48.4
2024-04-08T14:28:12.872Z,49
2024-04-08T14:31:25.012Z,50.3
2024-04-08T14:34:37.166Z,50.9
2024-04-08T14:37:49.314Z,51.2
2024-04-08T14:41:01.478Z,51.3
2024-04-08T14:44:13.626Z,51.9
2024-04-08T14:47:24.797Z,51
2024-04-08T14:50:36.932Z,51.5
2024-04-08T14:53:49.092Z,51.3
2024-04-08T14:57:01.233Z,50.7
2024-04-08T15:00:13.392Z,51.1
2024-04-08T15:03:25.532Z,50.8
2024-04-08T15:06:36.000Z,50.8
2024-04-08T15:09:48.857Z,51.5
2024-04-08T15:13:01.017Z,51.5
2024-04-08T15:16:13.157Z,51.4
2024-04-08T15:19:25.307Z,49.8
2024-04-08T15:22:37.468Z,50
2024-04-08T15:25:49.602Z,48.9
2024-04-08T15:29:01.754Z,49.4
2024-04-08T15:32:13.906Z,47.8
2024-04-08T15:35:26.057Z,49.4
2024-04-08T15:38:38.215Z,50
2024-04-08T15:41:50.356Z,48
2024-04-08T15:45:02.511Z,49.4
2024-04-08T15:48:13.680Z,49.3
2024-04-08T15:51:25.835Z,50
2024-04-08T15:54:37.986Z,49.6
2024-04-08T15:57:50.127Z,50
2024-04-08T16:01:02.286Z,49.8
2024-04-08T16:04:14.439Z,50
2024-04-08T16:07:26.581Z,49.7
2024-04-08T16:10:38.735Z,50.1
2024-04-08T16:13:50.889Z,50.9
2024-04-08T16:17:03.025Z,50.9
2024-04-08T16:20:15.176Z,51.8
2024-04-08T16:23:27.330Z,52.5
2024-04-08T16:26:39.000Z,53
2024-04-08T16:29:50.647Z,53.6
2024-04-08T16:33:02.789Z,54.1
2024-04-08T16:36:14.938Z,54.8
2024-04-08T16:39:27.091Z,54.7
2024-04-08T16:42:39.250Z,55.5
2024-04-08T16:45:51.401Z,56
2024-04-08T16:49:03.545Z,56.2
2024-04-08T16:52:15.707Z,57.2
2024-04-08T16:55:27.858Z,58.2
2024-04-08T16:58:39.997Z,57.3
2024-04-08T17:01:52.147Z,57.2
2024-04-08T17:05:04.315Z,58
2024-04-08T17:08:16.446Z,58.5
2024-04-08T17:11:27.617Z,58.1
2024-04-08T17:14:39.782Z,60
2024-04-08T17:17:51.929Z,59.9
2024-04-08T17:21:04.083Z,60.4
2024-04-08T17:24:16.235Z,60.5
2024-04-08T17:27:28.379Z,60.8
2024-04-08T17:30:40.525Z,60.9
2024-04-08T17:33:52.679Z,62
2024-04-08T17:37:04.826Z,62.1
2024-04-08T17:40:16.983Z,62.4
2024-04-08T17:43:29.133Z,63.2
2024-04-08T17:46:41.274Z,64.4
2024-04-08T17:49:53.431Z,66
2024-04-08T17:53:04.588Z,65.6
2024-04-08T17:56:16.746Z,65.5
2024-04-08T17:59:28.891Z,64.7
2024-04-08T18:02:41.040Z,64.5
2024-04-08T18:05:53.205Z,64.3
2024-04-08T18:09:05.352Z,64.9
2024-04-08T18:12:17.490Z,64.7
2024-04-08T18:15:29.658Z,65.2
2024-04-08T18:18:41.795Z,66.8
2024-04-08T18:21:53.954Z,67.8
2024-04-08T18:25:06.092Z,68.1
2024-04-08T18:28:18.246Z,67.2
2024-04-08T18:31:30.395Z,67.8
2024-04-08T18:34:41.561Z,67.1
2024-04-08T18:37:53.718Z,68
2024-04-08T18:41:05.872Z,67.3
2024-04-08T18:44:18.019Z,68
2024-04-08T18:47:30.159Z,69.8
2024-04-08T18:50:42.322Z,71.5
2024-04-08T18:53:54.466Z,70.8
2024-04-08T18:57:06.624Z,72.4
2024-04-08T19:00:18.779Z,72.7
2024-04-08T19:03:30.928Z,73.2
2024-04-08T19:06:43.060Z,72.6
2024-04-08T19:09:55.223Z,74
2024-04-08T19:13:07.372Z,74.2
2024-04-08T19:16:18.545Z,74.8
2024-04-08T19:19:30.693Z,74.8
2024-04-08T19:22:42.835Z,74.9
2024-04-08T19:25:54.992Z,75.6
2024-04-08T19:29:07.133Z,75.6
2024-04-08T19:32:19.278Z,76
2024-04-08T19:35:31.430Z,76.2
2024-04-08T19:38:43.596Z,75.5
2024-04-08T19:41:55.735Z,76.2
2024-04-08T19:45:07.892Z,75.2
2024-04-08T19:48:20.047Z,76
2024-04-08T19:51:32.186Z,76.2
2024-04-08T19:54:44.332Z,77.1
2024-04-08T19:57:55.501Z,76.6
2024-04-08T20:01:07.647Z,76.7
2024-04-08T20:04:19.807Z,77
2024-04-08T20:07:31.951Z,77.9
2024-04-08T20:10:44.098Z,77.1
2024-04-08T20:13:56.246Z,77
2024-04-08T20:17:08.402Z,77
2024-04-08T20:20:20.552Z,77.9
2024-04-08T20:23:32.703Z,77
2024-04-08T20:29:57.002Z,77.5
2024-04-08T20:33:09.148Z,77.8
2024-04-08T20:36:21.302Z,77.5
2024-04-08T20:39:32.475Z,77.8
2024-04-08T20:42:44.620Z,77.4
2024-04-08T20:45:56.785Z,78
2024-04-08T20:49:08.929Z,78.4
2024-04-08T20:52:21.080Z,78.4
2024-04-08T20:55:33.231Z,78.4
2024-04-08T20:58:45.370Z,78.2
2024-04-08T21:01:57.536Z,78.4
2024-04-08T21:05:09.675Z,78.5
2024-04-08T21:08:21.827Z,78.6
2024-04-08T21:11:33.972Z,77.9
2024-04-08T21:14:46.129Z,78.7
2024-04-08T21:17:58.277Z,79.7
2024-04-08T21:21:09.437Z,79.6
2024-04-08T21:24:21.589Z,78.7
2024-04-08T21:27:33.751Z,78.5
2024-04-08T21:30:45.886Z,78.2
2024-04-08T21:33:58.050Z,78.3
2024-04-08T21:37:10.184Z,77.4
2024-04-08T21:40:22.336Z,78.3
2024-04-08T21:43:34.489Z,78.6
2024-04-08T21:46:46.642Z,78.8
2024-04-08T21:49:58.788Z,79
2024-04-08T21:53:10.950Z,78.6
2024-04-08T21:56:23.000Z,79.8
2024-04-08T21:59:35.239Z,79.8
2024-04-08T22:02:46.417Z,79.2
2024-04-08T22:05:58.551Z,79.2
2024-04-08T22:09:10.703Z,79.5
2024-04-08T22:12:22.866Z,79
2024-04-08T22:15:35.012Z,79.3
2024-04-08T22:18:47.166Z,79.5
2024-04-08T22:21:59.310Z,80
2024-04-08T22:25:11.454Z,79.6
2024-04-08T22:28:23.614Z,79.8
2024-04-08T22:31:35.754Z,78.6
2024-04-08T22:34:47.913Z,79.2
2024-04-08T22:38:00.060Z,80
2024-04-08T22:41:12.216Z,80.2
2024-04-08T22:44:23.373Z,80
2024-04-08T22:47:35.529Z,79.7
2024-04-08T22:53:59.840Z,80.3
2024-04-08T22:57:11.983Z,79.8
2024-04-08T23:00:24.124Z,80.4
2024-04-08T23:03:36.288Z,80.5
2024-04-08T23:06:48.432Z,80.5
2024-04-08T23:10:00.593Z,80.3
2024-04-08T23:13:12.738Z,80
2024-04-08T23:16:24.892Z,80.5
2024-04-08T23:19:37.044Z,80.6
2024-04-08T23:22:49.182Z,79.8
2024-04-08T23:26:00.354Z,80.8
2024-04-08T23:29:12.513Z,80.9
2024-04-08T23:32:24.647Z,80
2024-04-08T23:35:36.815Z,80.8
2024-04-08T23:42:01.111Z,81.4
2024-04-08T23:45:13.258Z,81.3
2024-04-08T23:48:25.403Z,81.3
2024-04-08T23:51:37.560Z,81
2024-04-08T23:54:49.706Z,81.2
2024-04-08T23:58:01.851Z,81.4
